createdAt,value
2022-11-11T00:00:33.893Z,15.72
2022-11-11T00:03:24.864Z,15.76
2022-11-11T00:09:11.281Z,15.77
2022-11-11T00:11:57.707Z,15.77
2022-11-11T00:14:44.215Z,15.79
2022-11-11T00:17:48.977Z,15.81
2022-11-11T00:20:55.003Z,15.82
2022-11-11T00:24:00.152Z,15.81
2022-11-11T00:26:46.666Z,15.83
2022-11-11T00:29:32.887Z,15.86
2022-11-11T00:32:27.344Z,15.86
2022-11-11T00:35:32.545Z,15.87
2022-11-11T00:38:38.211Z,15.87
2022-11-11T00:41:27.300Z,15.85
2022-11-11T00:44:13.518Z,15.84
2022-11-11T00:47:18.691Z,15.87
2022-11-11T00:50:26.228Z,15.88
2022-11-11T00:53:19.341Z,15.88
2022-11-11T00:56:07.778Z,15.88
2022-11-11T00:58:54.280Z,15.88
2022-11-11T01:01:40.591Z,15.90
2022-11-11T01:04:26.709Z,15.92
2022-11-11T01:07:13.085Z,15.92
2022-11-11T01:09:59.249Z,15.92
2022-11-11T01:12:45.531Z,15.93
2022-11-11T01:15:33.783Z,15.92
2022-11-11T01:18:23.695Z,15.94
2022-11-11T01:21:24.622Z,15.99
2022-11-11T01:24:11.439Z,15.95
2022-11-11T01:26:57.878Z,15.95
2022-11-11T01:29:44.017Z,15.99
2022-11-11T01:32:30.446Z,15.98
2022-11-11T01:35:16.462Z,15.99
2022-11-11T01:38:02.643Z,15.96
2022-11-11T01:40:50.287Z,15.98
2022-11-11T01:43:36.828Z,15.96
2022-11-11T01:46:31.919Z,15.96
2022-11-11T01:49:59.051Z,15.94
2022-11-11T01:52:45.912Z,15.97
2022-11-11T01:55:32.736Z,15.96
2022-11-11T01:58:21.042Z,15.97
2022-11-11T02:01:08.089Z,15.93
2022-11-11T02:04:15.957Z,15.88
2022-11-11T02:07:07.189Z,15.83
2022-11-11T02:09:54.699Z,15.81
2022-11-11T02:13:00.002Z,15.81
2022-11-11T02:15:46.272Z,15.82
2022-11-11T02:18:33.364Z,15.77
2022-11-11T02:21:52.064Z,15.76
2022-11-11T02:24:39.435Z,15.78
2022-11-11T02:27:27.874Z,15.80
2022-11-11T02:30:17.072Z,15.82
2022-11-11T02:33:03.499Z,15.81
2022-11-11T02:35:59.138Z,15.77
2022-11-11T02:38:45.808Z,15.79
2022-11-11T02:41:50.977Z,15.80
2022-11-11T02:44:40.585Z,15.80
2022-11-11T02:47:27.435Z,15.79
2022-11-11T02:50:13.767Z,15.73
2022-11-11T02:52:59.925Z,15.74
2022-11-11T02:55:46.496Z,15.76
2022-11-11T02:58:33.428Z,15.74
2022-11-11T03:01:23.843Z,15.77
2022-11-11T03:04:10.058Z,15.74
2022-11-11T03:06:56.124Z,15.75
2022-11-11T03:09:42.247Z,15.76
2022-11-11T03:12:28.524Z,15.76
2022-11-11T03:15:14.720Z,15.77
2022-11-11T03:18:00.845Z,15.79
2022-11-11T03:21:38.146Z,15.79
2022-11-11T03:24:11.660Z,15.82
2022-11-11T03:26:58.117Z,15.83
2022-11-11T03:29:44.385Z,15.81
2022-11-11T03:32:30.263Z,15.80
2022-11-11T03:35:16.634Z,15.81
2022-11-11T03:38:16.555Z,15.84
2022-11-11T03:41:02.414Z,15.85
2022-11-11T03:43:48.652Z,15.86
2022-11-11T03:46:34.998Z,15.83
2022-11-11T03:49:21.332Z,15.87
2022-11-11T03:52:07.886Z,15.84
2022-11-11T03:54:54.079Z,15.86
2022-11-11T03:57:45.461Z,15.89
2022-11-11T04:00:31.940Z,15.87
2022-11-11T04:03:38.191Z,15.89
2022-11-11T04:06:43.336Z,15.85
2022-11-11T04:09:48.335Z,15.89
2022-11-11T04:12:56.413Z,15.94
2022-11-11T04:16:00.876Z,15.94
2022-11-11T04:19:05.877Z,15.95
2022-11-11T04:21:51.647Z,15.95
2022-11-11T04:24:56.702Z,15.93
2022-11-11T04:27:42.801Z,15.94
2022-11-11T04:30:29.035Z,15.92
2022-11-11T04:33:14.859Z,15.95
2022-11-11T04:36:00.776Z,15.89
2022-11-11T04:39:05.363Z,15.92
2022-11-11T04:42:07.534Z,15.92
2022-11-11T04:45:13.314Z,15.89
2022-11-11T04:48:06.597Z,15.88
2022-11-11T04:50:52.612Z,15.93
2022-11-11T04:53:38.860Z,15.92
2022-11-11T04:56:43.741Z,15.96
2022-11-11T04:59:30.063Z,15.96
2022-11-11T05:02:34.962Z,15.94
2022-11-11T05:05:21.884Z,15.92
2022-11-11T05:08:27.284Z,15.94
2022-11-11T05:11:14.645Z,16.01
2022-11-11T05:14:21.128Z,15.99
2022-11-11T05:17:28.205Z,15.99
2022-11-11T05:20:38.566Z,15.98
2022-11-11T05:23:45.383Z,15.99
2022-11-11T05:26:32.381Z,15.97
2022-11-11T05:29:18.294Z,15.99
2022-11-11T05:32:05.612Z,15.98
2022-11-11T05:34:52.088Z,15.97
2022-11-11T05:37:38.082Z,15.99
2022-11-11T05:40:24.366Z,16.00
2022-11-11T05:43:10.355Z,15.96
2022-11-11T05:45:56.468Z,15.98
2022-11-11T05:49:02.335Z,16.01
2022-11-11T05:51:48.239Z,15.99
2022-11-11T05:54:34.153Z,16.00
2022-11-11T05:57:20.455Z,16.01
2022-11-11T06:00:06.850Z,16.02
2022-11-11T06:02:53.103Z,16.02
2022-11-11T06:05:39.415Z,16.03
2022-11-11T06:08:25.485Z,16.03
2022-11-11T06:11:11.458Z,16.02
2022-11-11T06:13:58.128Z,16.01
2022-11-11T06:16:43.940Z,16.00
2022-11-11T06:19:30.046Z,15.99
2022-11-11T06:22:35.964Z,16.00
2022-11-11T06:25:45.278Z,16.01
2022-11-11T06:28:31.254Z,16.00
2022-11-11T06:31:26.205Z,15.99
2022-11-11T06:34:12.869Z,16.02
2022-11-11T06:36:58.885Z,16.04
2022-11-11T06:39:44.848Z,16.04
2022-11-11T06:42:37.028Z,16.05
2022-11-11T06:45:24.172Z,16.04
2022-11-11T06:48:10.515Z,16.07
2022-11-11T06:51:03.959Z,16.07
2022-11-11T06:53:50.112Z,16.04
2022-11-11T06:56:35.928Z,16.01
2022-11-11T06:59:22.156Z,16.01
2022-11-11T07:02:13.496Z,16.03
2022-11-11T07:05:00.622Z,15.97
2022-11-11T07:07:46.591Z,16.01
2022-11-11T07:10:34.482Z,15.98
2022-11-11T07:13:20.945Z,15.98
2022-11-11T07:16:07.556Z,16.00
2022-11-11T07:18:53.533Z,16.00
2022-11-11T07:21:40.098Z,16.00
2022-11-11T07:24:26.518Z,15.96
2022-11-11T07:27:12.863Z,15.94
2022-11-11T07:29:58.669Z,15.92
2022-11-11T07:32:46.905Z,15.88
2022-11-11T07:35:33.280Z,15.85
2022-11-11T07:38:19.558Z,15.83
2022-11-11T07:41:05.832Z,15.81
2022-11-11T07:43:51.901Z,15.78
2022-11-11T07:46:38.044Z,15.78
2022-11-11T07:49:24.182Z,15.75
2022-11-11T07:52:10.318Z,15.75
2022-11-11T07:54:56.682Z,15.73
2022-11-11T07:57:42.931Z,15.72
2022-11-11T08:00:29.070Z,15.73
2022-11-11T08:03:14.936Z,15.74
2022-11-11T08:06:03.234Z,15.69
2022-11-11T08:08:49.966Z,15.71
2022-11-11T08:12:08.497Z,15.72
2022-11-11T08:14:54.680Z,15.72
2022-11-11T08:17:41.192Z,15.72
2022-11-11T08:20:27.458Z,15.70
2022-11-11T08:26:28.850Z,15.72
2022-11-11T08:29:16.013Z,15.81
2022-11-11T08:32:02.232Z,15.91
2022-11-11T08:34:48.599Z,15.96
2022-11-11T08:37:35.233Z,16.00
2022-11-11T08:40:22.200Z,16.12
2022-11-11T08:43:08.261Z,16.21
2022-11-11T08:45:54.573Z,16.29
2022-11-11T08:48:40.786Z,16.40
2022-11-11T08:51:26.896Z,16.46
2022-11-11T08:54:12.942Z,16.51
2022-11-11T08:56:59.224Z,16.58
2022-11-11T08:59:45.634Z,16.66
2022-11-11T09:02:31.822Z,16.70
2022-11-11T09:05:18.569Z,16.68
2022-11-11T09:08:07.395Z,16.79
2022-11-11T09:10:53.434Z,16.77
2022-11-11T09:13:40.664Z,16.77
2022-11-11T09:16:26.801Z,16.81
2022-11-11T09:19:13.074Z,16.88
2022-11-11T09:21:59.350Z,16.97
2022-11-11T09:24:45.456Z,16.95
2022-11-11T09:27:31.249Z,16.91
2022-11-11T09:30:17.340Z,16.82
2022-11-11T09:33:04.935Z,16.76
2022-11-11T09:35:50.924Z,16.78
2022-11-11T09:38:37.334Z,16.81
2022-11-11T09:42:07.265Z,16.89
2022-11-11T09:45:05.742Z,16.89
2022-11-11T09:47:54.298Z,16.94
2022-11-11T09:50:54.444Z,16.93
2022-11-11T09:53:49.159Z,17.09
2022-11-11T09:56:38.478Z,17.08
2022-11-11T09:59:32.432Z,17.16
2022-11-11T10:02:29.774Z,17.20
2022-11-11T10:05:22.224Z,17.15
2022-11-11T10:08:13.505Z,17.16
2022-11-11T10:11:01.289Z,17.25
2022-11-11T10:13:47.679Z,17.39
2022-11-11T10:16:48.509Z,17.53
2022-11-11T10:20:01.736Z,17.78
2022-11-11T10:22:53.553Z,17.98
2022-11-11T10:25:47.271Z,18.08
2022-11-11T10:28:39.372Z,18.27
2022-11-11T10:31:26.204Z,19.07
2022-11-11T10:34:16.527Z,19.95
2022-11-11T10:37:03.588Z,20.59
2022-11-11T10:40:08.140Z,20.68
2022-11-11T10:42:54.472Z,21.00
2022-11-11T10:45:49.742Z,21.24
2022-11-11T10:48:53.918Z,21.47
2022-11-11T10:52:07.982Z,21.55
2022-11-11T10:55:09.989Z,21.80
2022-11-11T10:58:02.304Z,22.01
2022-11-11T11:00:51.608Z,21.52
2022-11-11T11:03:43.068Z,20.96
2022-11-11T11:06:34.795Z,20.89
2022-11-11T11:09:29.747Z,21.74
2022-11-11T11:12:40.425Z,22.47
2022-11-11T11:15:30.031Z,22.29
2022-11-11T11:18:18.692Z,21.40
2022-11-11T11:21:07.191Z,20.82
2022-11-11T11:23:53.011Z,20.51
2022-11-11T11:26:47.282Z,20.02
2022-11-11T11:29:39.747Z,19.66
2022-11-11T11:32:31.718Z,19.65
2022-11-11T11:35:38.157Z,20.29
2022-11-11T11:38:42.159Z,20.09
2022-11-11T11:41:42.675Z,20.04
2022-11-11T11:44:28.667Z,19.92
2022-11-11T11:47:25.761Z,19.85
2022-11-11T11:50:27.080Z,20.06
2022-11-11T11:53:39.159Z,19.93
2022-11-11T11:56:42.003Z,19.84
2022-11-11T11:59:46.859Z,19.37
2022-11-11T12:02:58.216Z,18.98
2022-11-11T12:05:50.718Z,18.73
2022-11-11T12:08:58.430Z,18.72
2022-11-11T12:12:07.154Z,18.62
2022-11-11T12:15:11.216Z,18.37
2022-11-11T12:18:16.858Z,18.32
2022-11-11T12:21:17.202Z,18.08
2022-11-11T12:24:40.159Z,18.04
2022-11-11T12:27:44.780Z,17.99
2022-11-11T12:30:33.812Z,17.86
2022-11-11T12:33:34.567Z,17.84
2022-11-11T12:36:20.145Z,17.77
2022-11-11T12:39:44.234Z,17.69
2022-11-11T12:43:06.956Z,17.69
2022-11-11T12:46:16.368Z,17.69
2022-11-11T12:49:20.675Z,17.71
2022-11-11T12:52:38.305Z,17.66
2022-11-11T12:56:28.158Z,17.61
2022-11-11T12:59:35.886Z,17.59
2022-11-11T13:02:30.679Z,17.57
2022-11-11T13:05:47.436Z,17.57
2022-11-11T13:08:52.646Z,17.58
2022-11-11T13:11:56.629Z,17.64
2022-11-11T13:15:04.117Z,17.59
2022-11-11T13:17:51.428Z,17.62
2022-11-11T13:20:40.155Z,17.55
2022-11-11T13:23:26.950Z,17.51
2022-11-11T13:26:44.294Z,17.46
2022-11-11T13:29:39.201Z,17.49
2022-11-11T13:32:32.322Z,17.49
2022-11-11T13:35:21.875Z,17.45
2022-11-11T13:38:24.617Z,17.38
2022-11-11T13:41:11.583Z,17.40
2022-11-11T13:44:01.491Z,17.35
2022-11-11T13:46:50.056Z,17.32
2022-11-11T13:49:54.379Z,17.33
2022-11-11T13:53:06.949Z,17.36
2022-11-11T13:56:00.733Z,17.38
2022-11-11T13:58:49.725Z,17.43
2022-11-11T14:01:42.299Z,17.47
2022-11-11T14:04:29.039Z,17.55
2022-11-11T14:07:44.403Z,17.63
2022-11-11T14:10:36.516Z,17.82
2022-11-11T14:13:24.004Z,18.01
2022-11-11T14:16:12.261Z,18.19
2022-11-11T14:18:58.440Z,18.19
2022-11-11T14:21:48.152Z,17.96
2022-11-11T14:24:38.786Z,17.83
2022-11-11T14:27:31.041Z,17.65
2022-11-11T14:30:32.607Z,17.57
2022-11-11T14:33:55.566Z,17.53
2022-11-11T14:36:57.647Z,17.50
2022-11-11T14:39:55.751Z,17.47
2022-11-11T14:42:44.812Z,17.47
2022-11-11T14:45:32.623Z,17.51
2022-11-11T14:48:47.016Z,17.62
2022-11-11T14:51:39.154Z,17.46
2022-11-11T14:54:33.797Z,17.47
2022-11-11T14:57:24.637Z,17.46
2022-11-11T15:00:16.554Z,17.42
2022-11-11T15:03:20.972Z,17.37
2022-11-11T15:06:28.524Z,17.39
2022-11-11T15:09:35.525Z,17.36
2022-11-11T15:12:49.837Z,17.33
2022-11-11T15:15:55.499Z,17.35
2022-11-11T15:18:44.351Z,17.32
2022-11-11T15:21:36.541Z,17.32
2022-11-11T15:24:36.068Z,17.32
2022-11-11T15:27:45.553Z,17.31
2022-11-11T15:30:56.253Z,17.29
2022-11-11T15:34:13.110Z,17.23
2022-11-11T15:37:03.929Z,17.19
2022-11-11T15:39:52.888Z,17.18
2022-11-11T15:42:46.190Z,17.20
2022-11-11T15:45:35.978Z,17.18
2022-11-11T15:48:26.419Z,17.15
2022-11-11T15:51:30.210Z,17.15
2022-11-11T15:54:16.838Z,17.13
2022-11-11T15:57:30.599Z,17.13
2022-11-11T16:00:25.624Z,17.09
2022-11-11T16:03:41.771Z,17.09
2022-11-11T16:06:28.215Z,17.04
2022-11-11T16:09:19.070Z,17.03
2022-11-11T16:12:05.613Z,16.98
2022-11-11T16:14:55.476Z,16.94
2022-11-11T16:17:42.917Z,16.89
2022-11-11T16:20:38.500Z,16.92
2022-11-11T16:23:26.448Z,16.90
2022-11-11T16:26:22.164Z,16.89
2022-11-11T16:29:15.713Z,16.87
2022-11-11T16:32:03.716Z,16.86
2022-11-11T16:34:50.786Z,16.87
2022-11-11T16:37:52.336Z,16.83
2022-11-11T16:40:43.674Z,16.84
2022-11-11T16:43:34.775Z,16.80
2022-11-11T16:46:36.352Z,16.78
2022-11-11T16:49:28.136Z,16.78
2022-11-11T16:52:21.219Z,16.79
2022-11-11T16:55:10.477Z,16.76
2022-11-11T16:58:03.682Z,16.80
2022-11-11T17:00:58.834Z,16.81
2022-11-11T17:03:59.485Z,16.78
2022-11-11T17:06:47.381Z,16.78
2022-11-11T17:09:41.423Z,16.82
2022-11-11T17:12:31.786Z,16.82
2022-11-11T17:15:20.590Z,16.81
2022-11-11T17:18:09.028Z,16.78
2022-11-11T17:20:56.928Z,16.77
2022-11-11T17:23:43.109Z,16.76
2022-11-11T17:26:29.298Z,16.73
2022-11-11T17:29:15.893Z,16.66
2022-11-11T17:32:02.276Z,16.34
2022-11-11T17:34:48.432Z,15.98
2022-11-11T17:37:38.238Z,15.69
2022-11-11T17:40:24.548Z,15.51
2022-11-11T17:43:10.942Z,15.46
2022-11-11T17:46:01.186Z,15.43
2022-11-11T17:48:47.600Z,15.42
2022-11-11T17:51:33.846Z,15.40
2022-11-11T17:54:20.233Z,15.41
2022-11-11T17:57:06.576Z,15.42
2022-11-11T17:59:52.774Z,15.42
2022-11-11T18:02:38.964Z,15.43
2022-11-11T18:05:25.102Z,15.47
2022-11-11T18:08:11.347Z,15.47
2022-11-11T18:11:06.270Z,15.47
2022-11-11T18:13:53.049Z,15.43
2022-11-11T18:16:38.917Z,15.38
2022-11-11T18:19:25.337Z,15.35
2022-11-11T18:22:11.469Z,15.32
2022-11-11T18:24:57.904Z,15.30
2022-11-11T18:27:45.683Z,15.29
2022-11-11T18:30:31.723Z,15.29
2022-11-11T18:33:18.670Z,15.26
2022-11-11T18:36:08.758Z,15.23
2022-11-11T18:38:56.352Z,15.20
2022-11-11T18:41:42.740Z,15.15
2022-11-11T18:44:28.600Z,15.10
2022-11-11T18:47:15.172Z,15.09
2022-11-11T18:50:01.081Z,15.06
2022-11-11T18:52:47.442Z,15.03
2022-11-11T18:55:33.926Z,14.99
2022-11-11T18:58:19.927Z,14.93
2022-11-11T19:01:12.414Z,14.87
2022-11-11T19:04:04.476Z,14.81
2022-11-11T19:06:50.831Z,14.76
2022-11-11T19:09:37.089Z,14.70
2022-11-11T19:12:22.917Z,14.62
2022-11-11T19:15:09.799Z,14.50
2022-11-11T19:17:55.686Z,14.37
2022-11-11T19:20:42.044Z,14.26
2022-11-11T19:23:30.242Z,14.15
2022-11-11T19:26:17.554Z,14.00
2022-11-11T19:29:06.022Z,13.90
2022-11-11T19:31:52.318Z,13.83
2022-11-11T19:34:38.545Z,13.76
2022-11-11T19:37:24.574Z,13.70
2022-11-11T19:40:11.121Z,13.66
2022-11-11T19:42:57.495Z,13.60
2022-11-11T19:45:44.224Z,13.55
2022-11-11T19:48:30.562Z,13.51
2022-11-11T19:51:19.487Z,13.48
2022-11-11T19:54:05.628Z,13.44
2022-11-11T19:56:51.622Z,13.40
2022-11-11T19:59:37.634Z,13.38
2022-11-11T20:02:23.793Z,13.36
2022-11-11T20:05:10.247Z,13.36
2022-11-11T20:07:57.739Z,13.37
2022-11-11T20:10:46.268Z,13.39
2022-11-11T20:13:33.991Z,13.44
2022-11-11T20:16:22.459Z,13.47
2022-11-11T20:19:10.797Z,13.50
2022-11-11T20:21:57.109Z,13.50
2022-11-11T20:24:43.175Z,13.50
2022-11-11T20:27:29.517Z,13.47
2022-11-11T20:30:15.419Z,13.42
2022-11-11T20:33:01.523Z,13.37
2022-11-11T20:35:47.742Z,13.30
2022-11-11T20:38:34.251Z,13.21
2022-11-11T20:41:20.617Z,13.12
2022-11-11T20:44:06.700Z,13.02
2022-11-11T20:46:52.872Z,12.96
2022-11-11T20:49:39.367Z,12.91
2022-11-11T20:52:25.763Z,12.84
2022-11-11T20:55:12.070Z,12.78
2022-11-11T20:57:58.010Z,12.72
2022-11-11T21:00:44.239Z,12.66
2022-11-11T21:03:31.959Z,12.62
2022-11-11T21:06:18.981Z,12.58
2022-11-11T21:09:07.870Z,12.56
2022-11-11T21:11:53.939Z,12.55
2022-11-11T21:14:40.253Z,12.52
2022-11-11T21:17:26.475Z,12.49
2022-11-11T21:20:12.250Z,12.48
2022-11-11T21:22:58.666Z,12.46
2022-11-11T21:25:44.896Z,12.46
2022-11-11T21:28:38.387Z,12.43
2022-11-11T21:31:29.159Z,12.41
2022-11-11T21:34:16.217Z,12.40
2022-11-11T21:37:02.148Z,12.38
2022-11-11T21:39:48.442Z,12.38
2022-11-11T21:42:34.251Z,12.36
2022-11-11T21:45:20.579Z,12.33
2022-11-11T21:48:06.826Z,12.30
2022-11-11T21:50:52.900Z,12.26
2022-11-11T21:53:41.653Z,12.24
2022-11-11T21:56:29.699Z,12.23
2022-11-11T21:59:15.595Z,12.19
2022-11-11T22:02:01.888Z,12.11
2022-11-11T22:04:48.016Z,12.05
2022-11-11T22:07:34.464Z,12.02
2022-11-11T22:10:21.156Z,11.99
2022-11-11T22:13:07.236Z,11.93
2022-11-11T22:16:05.026Z,11.91
2022-11-11T22:19:02.635Z,11.92
2022-11-11T22:21:50.000Z,11.93
2022-11-11T22:24:36.027Z,11.93
2022-11-11T22:27:22.082Z,11.91
2022-11-11T22:30:08.954Z,11.87
2022-11-11T22:32:54.978Z,11.85
2022-11-11T22:35:41.276Z,11.84
2022-11-11T22:38:28.077Z,11.83
2022-11-11T22:41:19.015Z,11.82
2022-11-11T22:44:05.131Z,11.77
2022-11-11T22:46:51.435Z,11.73
2022-11-11T22:49:37.319Z,11.69
2022-11-11T22:52:23.569Z,11.65
2022-11-11T22:55:09.687Z,11.60
2022-11-11T22:57:55.929Z,11.56
2022-11-11T23:00:42.002Z,11.51
2022-11-11T23:03:27.790Z,11.46
2022-11-11T23:06:19.399Z,11.42
2022-11-11T23:09:06.112Z,11.35
2022-11-11T23:11:52.704Z,11.31
2022-11-11T23:14:39.320Z,11.29
2022-11-11T23:17:25.428Z,11.26
2022-11-11T23:20:12.747Z,11.20
2022-11-11T23:22:58.892Z,11.16
2022-11-11T23:25:44.931Z,11.14
2022-11-11T23:28:31.181Z,11.13
2022-11-11T23:31:28.825Z,11.08
2022-11-11T23:34:14.738Z,11.06
2022-11-11T23:37:06.559Z,11.05
2022-11-11T23:39:53.764Z,11.05
2022-11-11T23:42:40.042Z,11.09
2022-11-11T23:45:26.020Z,11.14
2022-11-11T23:48:12.321Z,11.19
2022-11-11T23:50:58.374Z,11.27
2022-11-11T23:53:45.032Z,11.35
2022-11-11T23:56:31.629Z,11.45
2022-11-11T23:59:18.182Z,11.53
